createdAt,value
2022-12-13T00:01:24.959Z,0.39
2022-12-13T00:04:01.129Z,0.28
2022-12-13T00:06:29.192Z,0.22
2022-12-13T00:08:56.985Z,0.28
2022-12-13T00:11:24.287Z,0.19
2022-12-13T00:13:51.702Z,0.19
2022-12-13T00:16:24.378Z,0.22
2022-12-13T00:19:01.094Z,0.26
2022-12-13T00:21:32.952Z,0.20
2022-12-13T00:24:01.391Z,0.17
2022-12-13T00:26:30.851Z,0.23
2022-12-13T00:29:03.434Z,0.33
2022-12-13T00:34:19.488Z,0.10
2022-12-13T00:36:46.992Z,0.22
2022-12-13T00:39:16.559Z,0.19
2022-12-13T00:41:44.859Z,0.33
2022-12-13T00:44:13.502Z,0.35
2022-12-13T00:46:41.491Z,0.28
2022-12-13T00:49:11.051Z,0.52
2022-12-13T00:51:38.532Z,0.19
2022-12-13T00:54:06.104Z,0.05
2022-12-13T00:56:33.959Z,0.17
2022-12-13T00:59:01.507Z,0.19
2022-12-13T01:01:31.706Z,0.22
2022-12-13T01:04:01.318Z,0.15
2022-12-13T01:06:34.995Z,0.20
2022-12-13T01:09:03.094Z,0.30
2022-12-13T01:11:30.390Z,0.26
2022-12-13T01:13:57.655Z,0.49
2022-12-13T01:16:24.943Z,0.33
2022-12-13T01:18:52.127Z,0.55
2022-12-13T01:21:23.569Z,0.26
2022-12-13T01:24:00.295Z,0.18
2022-12-13T01:26:27.900Z,0.21
2022-12-13T01:29:01.729Z,0.18
2022-12-13T01:31:31.563Z,0.17
2022-12-13T01:33:59.272Z,0.13
2022-12-13T01:36:33.281Z,0.16
2022-12-13T01:39:15.183Z,0.27
2022-12-13T01:41:48.479Z,0.22
2022-12-13T01:44:58.143Z,0.21
2022-12-13T01:47:36.896Z,0.09
2022-12-13T01:50:13.908Z,0.24
2022-12-13T01:52:44.651Z,0.20
2022-12-13T01:55:12.557Z,0.11
2022-12-13T01:57:45.440Z,0.40
2022-12-13T02:00:14.549Z,0.16
2022-12-13T02:02:41.961Z,0.24
2022-12-13T02:05:44.171Z,0.39
2022-12-13T02:08:12.537Z,0.22
2022-12-13T02:10:40.001Z,0.18
2022-12-13T02:13:07.399Z,0.10
2022-12-13T02:16:00.188Z,0.21
2022-12-13T02:19:01.519Z,0.26
2022-12-13T02:22:05.635Z,-0.01
2022-12-13T02:24:35.915Z,0.18
2022-12-13T02:27:18.386Z,0.09
2022-12-13T02:30:13.116Z,-0.07
2022-12-13T02:32:56.412Z,-0.10
2022-12-13T02:35:28.506Z,-0.13
2022-12-13T02:38:13.442Z,-0.13
2022-12-13T02:40:54.237Z,0.02
2022-12-13T02:43:39.063Z,0.07
2022-12-13T02:46:14.817Z,0.06
2022-12-13T02:48:42.923Z,-0.09
2022-12-13T02:51:11.983Z,-0.07
2022-12-13T02:53:41.095Z,-0.12
2022-12-13T02:56:08.459Z,0.04
2022-12-13T02:58:43.056Z,-0.04
2022-12-13T03:01:28.537Z,-0.05
2022-12-13T03:04:20.097Z,-0.13
2022-12-13T03:07:19.812Z,-0.23
2022-12-13T03:09:54.712Z,-0.13
2022-12-13T03:12:53.336Z,-0.07
2022-12-13T03:15:27.242Z,-0.07
2022-12-13T03:18:15.745Z,0.18
2022-12-13T03:20:50.708Z,-0.06
2022-12-13T03:23:20.226Z,-0.06
2022-12-13T03:25:50.366Z,-0.11
2022-12-13T03:28:17.653Z,-0.07
2022-12-13T03:30:45.088Z,-0.07
2022-12-13T03:33:12.438Z,-0.11
2022-12-13T03:35:44.958Z,-0.14
2022-12-13T03:38:22.294Z,-0.18
2022-12-13T03:40:56.487Z,-0.03
2022-12-13T03:43:24.261Z,-0.16
2022-12-13T03:45:52.834Z,-0.23
2022-12-13T03:48:22.689Z,-0.13
2022-12-13T03:50:51.812Z,-0.23
2022-12-13T03:53:23.027Z,-0.05
2022-12-13T03:56:01.478Z,-0.21
2022-12-13T03:58:35.751Z,-0.27
2022-12-13T04:01:08.629Z,-0.22
2022-12-13T04:03:37.848Z,-0.30
2022-12-13T04:06:06.109Z,-0.25
2022-12-13T04:08:34.373Z,-0.22
2022-12-13T04:11:21.699Z,-0.29
2022-12-13T04:13:48.966Z,-0.44
2022-12-13T04:16:17.576Z,-0.30
2022-12-13T04:18:44.936Z,-0.40
2022-12-13T04:21:12.322Z,-0.50
2022-12-13T04:23:39.685Z,-0.36
2022-12-13T04:26:07.069Z,-0.41
2022-12-13T04:28:34.347Z,-0.30
2022-12-13T04:31:01.703Z,-0.21
2022-12-13T04:33:29.108Z,-0.30
2022-12-13T04:35:56.415Z,-0.41
2022-12-13T04:38:23.663Z,-0.22
2022-12-13T04:40:50.965Z,-0.28
2022-12-13T04:43:18.180Z,-0.41
2022-12-13T04:45:45.487Z,-0.26
2022-12-13T04:48:13.871Z,-0.13
2022-12-13T04:51:01.119Z,-0.20
2022-12-13T04:53:30.207Z,-0.19
2022-12-13T04:55:57.793Z,-0.35
2022-12-13T04:58:25.194Z,-0.28
2022-12-13T05:00:52.678Z,-0.22
2022-12-13T05:03:20.003Z,-0.38
2022-12-13T05:05:47.318Z,-0.46
2022-12-13T05:08:14.778Z,-0.53
2022-12-13T05:10:42.187Z,-0.62
2022-12-13T05:13:09.448Z,-0.59
2022-12-13T05:15:36.864Z,-0.72
2022-12-13T05:18:10.632Z,-0.44
2022-12-13T05:20:39.728Z,-0.56
2022-12-13T05:23:07.295Z,-0.59
2022-12-13T05:25:36.936Z,-0.58
2022-12-13T05:28:08.938Z,-0.68
2022-12-13T05:30:53.122Z,-0.61
2022-12-13T05:33:22.608Z,-0.67
2022-12-13T05:35:50.091Z,-0.51
2022-12-13T05:38:17.560Z,-0.54
2022-12-13T05:40:45.002Z,-0.49
2022-12-13T05:43:21.430Z,-0.29
2022-12-13T05:45:50.655Z,-0.26
2022-12-13T05:48:24.949Z,-0.39
2022-12-13T05:51:09.763Z,-0.32
2022-12-13T05:53:40.086Z,-0.39
2022-12-13T05:56:08.239Z,-0.38
2022-12-13T05:58:37.567Z,-0.34
2022-12-13T06:01:12.884Z,-0.21
2022-12-13T06:03:41.660Z,-0.31
2022-12-13T06:06:10.535Z,-0.28
2022-12-13T06:08:37.955Z,-0.16
2022-12-13T06:11:11.193Z,-0.43
2022-12-13T06:13:42.302Z,-0.37
2022-12-13T06:16:22.920Z,-0.50
2022-12-13T06:18:59.372Z,-0.38
2022-12-13T06:21:31.179Z,-0.45
2022-12-13T06:24:11.351Z,-0.31
2022-12-13T06:26:38.599Z,-0.25
2022-12-13T06:29:05.967Z,-0.10
2022-12-13T06:31:33.295Z,-0.23
2022-12-13T06:34:13.989Z,-0.26
2022-12-13T06:36:43.230Z,-0.40
2022-12-13T06:39:10.562Z,-0.47
2022-12-13T06:41:37.797Z,-0.43
2022-12-13T06:44:05.448Z,-0.31
2022-12-13T06:46:33.141Z,-0.43
2022-12-13T06:49:01.391Z,-0.55
2022-12-13T06:51:33.282Z,-0.61
2022-12-13T06:54:03.759Z,-0.46
2022-12-13T06:56:31.805Z,-0.50
2022-12-13T06:59:02.026Z,-0.44
2022-12-13T07:01:37.080Z,-0.46
2022-12-13T07:04:30.765Z,-0.62
2022-12-13T07:06:53.800Z,-0.34
2022-12-13T07:09:21.170Z,-0.36
2022-12-13T07:11:52.002Z,-0.46
2022-12-13T07:14:20.358Z,-0.50
2022-12-13T07:16:47.607Z,-0.41
2022-12-13T07:19:22.581Z,-0.31
2022-12-13T07:21:52.655Z,-0.50
2022-12-13T07:24:19.942Z,-0.51
2022-12-13T07:26:47.359Z,-0.36
2022-12-13T07:29:22.761Z,-0.24
2022-12-13T07:31:50.356Z,-0.34
2022-12-13T07:34:17.748Z,0.21
2022-12-13T07:36:45.110Z,0.39
2022-12-13T07:39:12.351Z,0.60
2022-12-13T07:41:39.891Z,0.77
2022-12-13T07:44:07.965Z,0.69
2022-12-13T07:46:35.385Z,0.89
2022-12-13T07:49:03.569Z,0.85
2022-12-13T07:51:33.762Z,0.97
2022-12-13T07:54:01.131Z,0.85
2022-12-13T07:56:37.353Z,0.78
2022-12-13T07:59:04.642Z,0.78
2022-12-13T08:01:34.561Z,0.21
2022-12-13T08:04:03.162Z,0.65
2022-12-13T08:06:32.298Z,0.90
2022-12-13T08:08:59.588Z,0.84
2022-12-13T08:11:26.968Z,0.87
2022-12-13T08:13:54.240Z,1.06
2022-12-13T08:16:26.010Z,1.01
2022-12-13T08:19:02.225Z,0.93
2022-12-13T08:24:30.717Z,0.79
2022-12-13T08:27:03.372Z,0.56
2022-12-13T08:29:34.853Z,0.08
2022-12-13T08:32:05.272Z,0.07
2022-12-13T08:34:32.809Z,0.01
2022-12-13T08:37:02.031Z,0.02
2022-12-13T08:39:37.147Z,0.17
2022-12-13T08:42:19.456Z,0.15
2022-12-13T08:44:52.071Z,0.05
2022-12-13T08:47:23.152Z,0.02
2022-12-13T08:50:01.943Z,0.10
2022-12-13T08:52:40.104Z,0.10
2022-12-13T08:55:13.548Z,-0.08
2022-12-13T08:57:42.339Z,0.01
2022-12-13T09:00:13.251Z,0.13
2022-12-13T09:02:40.744Z,-0.21
2022-12-13T09:05:09.180Z,-0.12
2022-12-13T09:07:37.249Z,-0.03
2022-12-13T09:10:07.507Z,-0.14
2022-12-13T09:13:01.337Z,-0.16
2022-12-13T09:15:34.335Z,-0.12
2022-12-13T09:18:04.403Z,-0.28
2022-12-13T09:20:40.810Z,-0.29
2022-12-13T09:23:14.109Z,-0.37
2022-12-13T09:25:56.010Z,-0.09
2022-12-13T09:28:32.435Z,-0.29
2022-12-13T09:31:00.861Z,-0.25
2022-12-13T09:33:30.342Z,-0.15
2022-12-13T09:36:01.255Z,-0.17
2022-12-13T09:38:29.007Z,-0.09
2022-12-13T09:40:58.214Z,-0.18
2022-12-13T09:43:42.887Z,-0.33
2022-12-13T09:46:26.479Z,0.05
2022-12-13T09:49:13.374Z,-0.03
2022-12-13T09:51:45.920Z,-0.06
2022-12-13T09:54:19.037Z,-0.05
2022-12-13T09:56:51.209Z,-0.07
2022-12-13T09:59:32.127Z,0.05
2022-12-13T10:02:12.088Z,0.02
2022-12-13T10:04:39.436Z,0.18
2022-12-13T10:07:21.453Z,0.13
2022-12-13T10:09:50.505Z,0.03
2022-12-13T10:12:18.099Z,0.28
2022-12-13T10:14:52.286Z,0.35
2022-12-13T10:17:22.112Z,0.27
2022-12-13T10:19:54.430Z,0.22
2022-12-13T10:22:25.267Z,0.29
2022-12-13T10:24:54.063Z,0.42
2022-12-13T10:27:28.644Z,0.28
2022-12-13T10:30:28.566Z,0.47
2022-12-13T10:32:56.262Z,0.33
2022-12-13T10:35:23.616Z,0.15
2022-12-13T10:37:51.881Z,0.25
2022-12-13T10:40:31.884Z,0.24
2022-12-13T10:43:08.630Z,0.42
2022-12-13T10:45:35.966Z,0.56
2022-12-13T10:48:04.583Z,0.52
2022-12-13T10:50:32.209Z,0.67
2022-12-13T10:53:00.299Z,0.74
2022-12-13T10:55:32.824Z,0.73
2022-12-13T10:58:07.380Z,0.86
2022-12-13T11:00:37.877Z,0.78
2022-12-13T11:03:05.692Z,0.84
2022-12-13T11:05:35.117Z,0.93
2022-12-13T11:08:21.295Z,0.80
2022-12-13T11:11:06.396Z,0.91
2022-12-13T11:13:46.807Z,0.86
2022-12-13T11:16:28.125Z,0.88
2022-12-13T11:18:57.224Z,0.86
2022-12-13T11:21:33.242Z,0.91
2022-12-13T11:24:06.454Z,0.98
2022-12-13T11:26:36.853Z,0.88
2022-12-13T11:29:36.345Z,0.86
2022-12-13T11:32:12.447Z,0.84
2022-12-13T11:34:51.775Z,1.15
2022-12-13T11:37:37.276Z,1.15
2022-12-13T11:40:20.493Z,1.12
2022-12-13T11:42:52.273Z,1.24
2022-12-13T11:45:23.217Z,1.09
2022-12-13T11:48:09.253Z,0.94
2022-12-13T11:50:42.499Z,1.01
2022-12-13T11:53:19.142Z,1.06
2022-12-13T11:56:13.582Z,1.10
2022-12-13T11:59:07.136Z,1.17
2022-12-13T12:01:47.548Z,1.22
2022-12-13T12:04:22.416Z,1.26
2022-12-13T12:07:24.416Z,1.20
2022-12-13T12:09:58.722Z,1.21
2022-12-13T12:12:34.058Z,1.40
2022-12-13T12:15:16.034Z,1.28
2022-12-13T12:17:43.925Z,1.32
2022-12-13T12:20:14.428Z,1.35
2022-12-13T12:23:26.670Z,1.44
2022-12-13T12:26:11.219Z,1.32
2022-12-13T12:28:44.501Z,1.24
2022-12-13T12:31:20.982Z,1.22
2022-12-13T12:33:54.573Z,1.38
2022-12-13T12:36:24.658Z,1.57
2022-12-13T12:39:07.185Z,1.55
2022-12-13T12:41:55.990Z,1.60
2022-12-13T12:44:40.887Z,1.75
2022-12-13T12:50:47.017Z,1.54
2022-12-13T12:53:40.600Z,1.76
2022-12-13T12:56:53.290Z,1.86
2022-12-13T12:59:27.257Z,1.93
2022-12-13T13:02:09.373Z,2.10
2022-12-13T13:04:42.417Z,2.08
2022-12-13T13:07:23.401Z,2.14
2022-12-13T13:09:55.475Z,2.12
2022-12-13T13:12:30.247Z,2.18
2022-12-13T13:14:58.339Z,2.13
2022-12-13T13:17:25.690Z,2.01
2022-12-13T13:20:31.577Z,2.05
2022-12-13T13:23:38.461Z,2.41
2022-12-13T13:26:15.832Z,2.57
2022-12-13T13:28:42.786Z,2.54
2022-12-13T13:31:10.411Z,2.48
2022-12-13T13:33:48.687Z,2.64
2022-12-13T13:36:41.584Z,2.65
2022-12-13T13:39:16.747Z,2.68
2022-12-13T13:41:55.352Z,2.87
2022-12-13T13:44:44.959Z,2.84
2022-12-13T13:47:16.347Z,3.01
2022-12-13T13:50:01.621Z,2.95
2022-12-13T13:53:01.764Z,2.76
2022-12-13T13:55:57.087Z,2.73
2022-12-13T13:58:59.901Z,2.97
2022-12-13T14:01:42.301Z,2.81
2022-12-13T14:04:27.896Z,2.81
2022-12-13T14:07:06.672Z,2.91
2022-12-13T14:09:48.144Z,2.86
2022-12-13T14:12:36.902Z,3.01
2022-12-13T14:15:28.642Z,3.13
2022-12-13T14:18:27.282Z,2.94
2022-12-13T14:21:04.030Z,3.01
2022-12-13T14:23:53.267Z,3.00
2022-12-13T14:26:42.439Z,2.94
2022-12-13T14:29:20.367Z,2.87
2022-12-13T14:31:49.726Z,2.97
2022-12-13T14:34:27.933Z,3.08
2022-12-13T14:37:07.124Z,3.08
2022-12-13T14:39:34.793Z,3.17
2022-12-13T14:42:14.797Z,3.37
2022-12-13T14:44:42.002Z,3.24
2022-12-13T14:47:12.012Z,3.14
2022-12-13T14:49:41.898Z,3.21
2022-12-13T14:52:28.812Z,3.05
2022-12-13T14:55:01.432Z,3.22
2022-12-13T14:57:30.393Z,3.20
2022-12-13T14:59:59.135Z,3.20
2022-12-13T15:02:32.237Z,3.14
2022-12-13T15:05:02.175Z,3.42
2022-12-13T15:07:37.190Z,3.60
2022-12-13T15:10:19.680Z,3.75
2022-12-13T15:12:47.649Z,3.61
2022-12-13T15:15:26.486Z,3.71
2022-12-13T15:18:19.650Z,3.70
2022-12-13T15:20:51.784Z,3.63
2022-12-13T15:23:33.005Z,3.39
2022-12-13T15:26:12.195Z,3.43
2022-12-13T15:28:43.047Z,3.40
2022-12-13T15:31:11.447Z,10.32
2022-12-13T15:33:48.263Z,7.01
2022-12-13T15:36:27.298Z,5.20
2022-12-13T15:38:54.808Z,4.58
2022-12-13T15:41:38.929Z,4.35
2022-12-13T15:44:14.994Z,4.08
2022-12-13T15:46:45.422Z,3.91
2022-12-13T15:49:22.602Z,3.79
2022-12-13T15:52:03.134Z,3.52
2022-12-13T15:54:33.682Z,3.50
2022-12-13T15:57:17.550Z,3.57
2022-12-13T15:59:45.291Z,3.54
2022-12-13T16:02:20.426Z,3.48
2022-12-13T16:04:48.212Z,3.47
2022-12-13T16:07:28.183Z,3.48
2022-12-13T16:09:57.882Z,3.13
2022-12-13T16:12:31.977Z,3.28
2022-12-13T16:15:28.941Z,3.63
2022-12-13T16:18:07.533Z,3.61
2022-12-13T16:20:35.111Z,3.68
2022-12-13T16:23:09.010Z,3.68
2022-12-13T16:25:39.782Z,3.55
2022-12-13T16:28:07.128Z,3.44
2022-12-13T16:30:52.943Z,3.29
2022-12-13T16:33:30.435Z,3.19
2022-12-13T16:35:58.079Z,3.09
2022-12-13T16:38:26.858Z,3.22
2022-12-13T16:40:55.779Z,3.18
2022-12-13T16:43:31.145Z,3.23
2022-12-13T16:47:12.236Z,2.99
2022-12-13T16:48:52.015Z,2.95
2022-12-13T16:51:19.508Z,3.21
2022-12-13T16:53:46.947Z,3.35
2022-12-13T16:56:16.621Z,3.15
2022-12-13T16:58:49.569Z,3.15
2022-12-13T17:01:21.226Z,3.18
2022-12-13T17:03:48.741Z,3.07
2022-12-13T17:06:18.967Z,3.14
2022-12-13T17:08:46.397Z,2.98
2022-12-13T17:11:18.048Z,2.97
2022-12-13T17:13:47.650Z,3.32
2022-12-13T17:16:15.514Z,3.14
2022-12-13T17:18:42.792Z,3.12
2022-12-13T17:21:10.611Z,2.94
2022-12-13T17:23:37.986Z,2.73
2022-12-13T17:26:07.326Z,2.63
2022-12-13T17:28:34.694Z,2.59
2022-12-13T17:31:06.495Z,2.60
2022-12-13T17:33:34.294Z,2.64
2022-12-13T17:36:03.861Z,2.76
2022-12-13T17:38:31.390Z,2.83
2022-12-13T17:40:58.641Z,2.95
2022-12-13T17:43:34.418Z,2.75
2022-12-13T17:46:03.593Z,2.76
2022-12-13T17:48:39.013Z,2.72
2022-12-13T17:51:10.142Z,2.65
2022-12-13T17:53:39.545Z,2.97
2022-12-13T17:56:08.926Z,3.00
2022-12-13T17:58:36.363Z,2.98
2022-12-13T18:01:12.180Z,2.98
2022-12-13T18:03:39.650Z,2.96
2022-12-13T18:06:07.431Z,2.81
2022-12-13T18:08:42.407Z,2.97
2022-12-13T18:13:57.906Z,2.83
2022-12-13T18:16:32.063Z,2.66
2022-12-13T18:19:06.262Z,2.72
2022-12-13T18:21:35.460Z,2.73
2022-12-13T18:24:02.770Z,2.95
2022-12-13T18:26:30.430Z,3.11
2022-12-13T18:28:57.858Z,2.99
2022-12-13T18:31:25.562Z,2.83
2022-12-13T18:33:53.940Z,2.75
2022-12-13T18:36:23.720Z,2.62
2022-12-13T18:38:51.592Z,2.48
2022-12-13T18:41:24.003Z,2.45
2022-12-13T18:43:56.775Z,2.60
2022-12-13T18:46:30.858Z,2.67
2022-12-13T18:48:59.016Z,2.69
2022-12-13T18:51:26.501Z,2.74
2022-12-13T18:53:54.985Z,2.45
2022-12-13T18:56:23.073Z,2.36
2022-12-13T18:58:51.223Z,2.56
2022-12-13T19:01:19.939Z,2.79
2022-12-13T19:03:48.710Z,2.68
2022-12-13T19:06:22.191Z,2.67
2022-12-13T19:08:51.565Z,2.65
2022-12-13T19:11:19.659Z,2.59
2022-12-13T19:13:47.510Z,2.86
2022-12-13T19:16:18.680Z,2.76
2022-12-13T19:18:46.460Z,2.72
2022-12-13T19:21:16.212Z,2.64
2022-12-13T19:23:47.300Z,2.51
2022-12-13T19:26:17.432Z,2.59
2022-12-13T19:28:44.929Z,2.65
2022-12-13T19:31:13.664Z,2.77
2022-12-13T19:33:42.010Z,2.65
2022-12-13T19:36:10.391Z,2.64
2022-12-13T19:38:38.507Z,2.51
2022-12-13T19:41:10.758Z,2.58
2022-12-13T19:43:38.197Z,2.49
2022-12-13T19:46:07.386Z,2.81
2022-12-13T19:48:37.552Z,2.74
2022-12-13T19:51:09.993Z,2.76
2022-12-13T19:53:38.576Z,2.80
2022-12-13T19:56:13.335Z,2.73
2022-12-13T19:58:40.989Z,2.92
2022-12-13T20:01:08.756Z,2.97
2022-12-13T20:03:41.651Z,2.86
2022-12-13T20:06:10.955Z,2.68
2022-12-13T20:08:38.404Z,2.68
2022-12-13T20:11:08.074Z,2.64
2022-12-13T20:13:36.029Z,2.50
2022-12-13T20:16:05.017Z,2.51
2022-12-13T20:18:33.630Z,2.44
2022-12-13T20:21:11.775Z,2.34
2022-12-13T20:23:41.052Z,2.53
2022-12-13T20:26:12.149Z,2.40
2022-12-13T20:28:39.934Z,2.55
2022-12-13T20:31:12.560Z,2.64
2022-12-13T20:33:40.514Z,2.26
2022-12-13T20:36:28.601Z,2.26
2022-12-13T20:38:59.203Z,2.27
2022-12-13T20:41:28.945Z,2.60
2022-12-13T20:43:57.888Z,2.74
2022-12-13T20:46:26.762Z,2.78
2022-12-13T20:48:55.593Z,2.94
2022-12-13T20:51:25.451Z,2.49
2022-12-13T20:53:53.235Z,2.53
2022-12-13T20:56:25.705Z,2.80
2022-12-13T20:58:53.083Z,2.61
2022-12-13T21:01:23.056Z,2.60
2022-12-13T21:03:53.524Z,2.57
2022-12-13T21:06:21.133Z,2.81
2022-12-13T21:08:51.175Z,2.92
2022-12-13T21:11:26.057Z,2.75
2022-12-13T21:14:07.947Z,2.61
2022-12-13T21:16:43.061Z,2.90
2022-12-13T21:19:13.563Z,2.63
2022-12-13T21:21:41.678Z,2.59
2022-12-13T21:24:09.388Z,2.43
2022-12-13T21:26:36.882Z,2.45
2022-12-13T21:29:06.775Z,2.46
2022-12-13T21:31:34.737Z,2.48
2022-12-13T21:34:02.595Z,2.79
2022-12-13T21:36:31.782Z,2.54
2022-12-13T21:39:05.514Z,2.53
2022-12-13T21:41:32.805Z,2.74
2022-12-13T21:44:01.963Z,2.63
2022-12-13T21:46:54.847Z,2.65
2022-12-13T21:49:18.009Z,2.85
2022-12-13T21:51:48.161Z,2.90
2022-12-13T21:54:17.069Z,2.61
2022-12-13T21:57:03.048Z,2.70
2022-12-13T21:59:30.903Z,2.71
2022-12-13T22:02:14.942Z,2.61
2022-12-13T22:04:47.107Z,2.66
2022-12-13T22:07:21.563Z,2.56
2022-12-13T22:09:49.764Z,2.55
2022-12-13T22:12:22.741Z,2.56
2022-12-13T22:14:50.593Z,2.47
2022-12-13T22:17:31.293Z,2.61
2022-12-13T22:20:03.677Z,2.48
2022-12-13T22:22:31.696Z,2.49
2022-12-13T22:24:59.074Z,2.35
2022-12-13T22:27:26.621Z,2.23
2022-12-13T22:29:59.082Z,2.06
2022-12-13T22:32:29.032Z,2.01
2022-12-13T22:34:56.787Z,2.26
2022-12-13T22:37:24.919Z,2.50
2022-12-13T22:39:52.303Z,2.34
2022-12-13T22:42:20.599Z,2.37
2022-12-13T22:44:48.173Z,2.53
2022-12-13T22:47:15.823Z,2.40
2022-12-13T22:49:43.152Z,2.35
2022-12-13T22:52:10.873Z,2.19
2022-12-13T22:54:38.145Z,2.32
2022-12-13T22:57:07.390Z,2.15
2022-12-13T22:59:34.742Z,2.36
2022-12-13T23:02:03.912Z,2.58
2022-12-13T23:04:33.995Z,2.69
2022-12-13T23:07:01.581Z,2.44
2022-12-13T23:09:29.072Z,2.61
2022-12-13T23:12:15.358Z,2.58
2022-12-13T23:14:42.884Z,2.50
2022-12-13T23:17:10.239Z,2.65
2022-12-13T23:19:50.193Z,2.39
2022-12-13T23:22:22.650Z,2.44
2022-12-13T23:24:50.862Z,2.35
2022-12-13T23:27:20.662Z,2.44
2022-12-13T23:29:48.178Z,2.49
2022-12-13T23:32:15.685Z,2.30
2022-12-13T23:34:42.989Z,2.55
2022-12-13T23:37:10.415Z,2.51
2022-12-13T23:39:37.764Z,2.33
2022-12-13T23:42:05.270Z,2.37
2022-12-13T23:44:32.672Z,2.71
2022-12-13T23:46:59.931Z,2.71
2022-12-13T23:49:27.544Z,2.56
2022-12-13T23:51:54.803Z,2.85
2022-12-13T23:54:22.235Z,2.76
2022-12-13T23:56:49.630Z,2.62
2022-12-13T23:59:16.940Z,2.60
